Time;durP1;ratioP1;P1;durP2;ratioP2;P2;SDS_P1;SDS_P2;PMS_P1;PMS_P2;Temp;Humidity;BMP_temperature;BMP_pressure;BME280_temperature;BME280_humidity;BME280_pressure;Samples;Min_cycle;Max_cycle;Signal;HPM_P1;HPM_P2
2022/07/09 00:01:22;;;;;;;15.48;4.25;;;;;;;;;;5082183;28;20028;-72
2022/07/09 00:03:48;;;;;;;10.93;3.65;;;;;;;;;;5093107;28;20032;-72
2022/07/09 00:06:13;;;;;;;14.13;4.45;;;;;;;;;;5077263;28;20119;-72
2022/07/09 00:08:38;;;;;;;10.55;3.65;;;;;;;;;;5074641;28;20034;-73
2022/07/09 00:11:03;;;;;;;10.75;4.07;;;;;;;;;;5080927;28;20051;-72
2022/07/09 00:13:28;;;;;;;8.10;3.75;;;;;;;;;;5093483;28;20039;-72
2022/07/09 00:15:54;;;;;;;6.53;3.55;;;;;;;;;;5080400;28;20046;-72
2022/07/09 00:18:19;;;;;;;8.18;3.67;;;;;;;;;;5076922;28;20033;-71
2022/07/09 00:20:44;;;;;;;10.05;3.83;;;;;;;;;;5084360;28;20458;-72
2022/07/09 00:23:10;;;;;;;7.45;3.58;;;;;;;;;;5081950;28;20020;-72
2022/07/09 00:25:35;;;;;;;11.55;3.80;;;;;;;;;;5082655;28;20063;-72
2022/07/09 00:28:00;;;;;;;9.27;4.03;;;;;;;;;;5082384;28;20032;-72
2022/07/09 00:30:26;;;;;;;11.07;3.72;;;;;;;;;;5082277;28;20032;-72
2022/07/09 00:32:51;;;;;;;8.57;3.80;;;;;;;;;;5076997;28;20062;-72
2022/07/09 00:35:16;;;;;;;10.50;4.13;;;;;;;;;;5084910;28;20024;-72
2022/07/09 00:37:41;;;;;;;10.07;3.90;;;;;;;;;;5073435;28;20021;-72
2022/07/09 00:40:07;;;;;;;10.90;3.70;;;;;;;;;;5087181;28;20055;-72
2022/07/09 00:42:32;;;;;;;14.45;3.80;;;;;;;;;;5085216;28;20444;-72
2022/07/09 00:44:57;;;;;;;9.50;3.80;;;;;;;;;;5074358;28;20091;-71
2022/07/09 00:47:23;;;;;;;9.73;4.22;;;;;;;;;;5079820;28;20110;-72
2022/07/09 00:49:48;;;;;;;12.20;4.20;;;;;;;;;;5087064;28;20017;-72
2022/07/09 00:52:14;;;;;;;9.13;3.95;;;;;;;;;;5073452;28;20021;-71
2022/07/09 00:54:41;;;;;;;12.77;3.70;;;;;;;;;;5080171;28;20073;-72
2022/07/09 00:57:07;;;;;;;10.40;3.65;;;;;;;;;;5072966;28;20425;-72
2022/07/09 00:59:33;;;;;;;12.25;4.20;;;;;;;;;;5079839;28;20113;-71
2022/07/09 01:01:59;;;;;;;12.90;3.70;;;;;;;;;;5081521;28;20108;-71
2022/07/09 01:04:24;;;;;;;10.55;3.42;;;;;;;;;;5080151;28;20031;-71
2022/07/09 01:06:50;;;;;;;9.55;4.07;;;;;;;;;;5070642;28;20021;-71
2022/07/09 01:09:15;;;;;;;9.15;3.92;;;;;;;;;;5089107;28;20495;-71
2022/07/09 01:11:40;;;;;;;11.30;4.53;;;;;;;;;;5076243;28;20452;-71
2022/07/09 01:14:05;;;;;;;9.35;4.22;;;;;;;;;;5085302;28;20036;-71
2022/07/09 01:16:32;;;;;;;9.85;4.30;;;;;;;;;;5072471;28;20043;-71
2022/07/09 01:18:57;;;;;;;11.25;4.22;;;;;;;;;;5077016;28;20506;-72
2022/07/09 01:21:22;;;;;;;12.73;4.13;;;;;;;;;;5079460;28;20021;-71
2022/07/09 01:23:47;;;;;;;12.45;4.25;;;;;;;;;;5085559;28;20032;-71
2022/07/09 01:26:13;;;;;;;13.98;4.60;;;;;;;;;;5077511;28;20115;-71
2022/07/09 01:28:38;;;;;;;10.90;3.97;;;;;;;;;;5078299;28;20031;-71
2022/07/09 01:31:03;;;;;;;10.82;4.10;;;;;;;;;;5072359;28;20032;-71
2022/07/09 01:33:30;;;;;;;13.52;4.30;;;;;;;;;;5077636;28;20031;-72
2022/07/09 01:35:55;;;;;;;14.60;3.80;;;;;;;;;;5073466;28;20460;-71
2022/07/09 01:38:20;;;;;;;8.77;3.67;;;;;;;;;;5083050;28;20181;-71
2022/07/09 01:40:46;;;;;;;13.02;4.40;;;;;;;;;;5077307;28;20361;-71
2022/07/09 01:43:13;;;;;;;11.25;4.47;;;;;;;;;;5083439;28;20399;-71
2022/07/09 01:45:38;;;;;;;10.93;4.88;;;;;;;;;;5079799;28;20020;-71
2022/07/09 01:48:03;;;;;;;15.23;4.55;;;;;;;;;;5072807;28;20024;-71
2022/07/09 01:50:28;;;;;;;15.10;4.18;;;;;;;;;;5081691;28;20460;-71
2022/07/09 01:52:54;;;;;;;8.38;3.88;;;;;;;;;;5079338;28;20020;-72
2022/07/09 01:55:19;;;;;;;10.45;4.22;;;;;;;;;;5083410;28;20098;-72
2022/07/09 01:57:44;;;;;;;12.07;4.32;;;;;;;;;;5081441;28;20472;-72
2022/07/09 02:00:10;;;;;;;11.13;4.32;;;;;;;;;;5082299;28;20406;-71
2022/07/09 02:02:36;;;;;;;11.45;4.53;;;;;;;;;;5077086;28;20100;-72
2022/07/09 02:05:01;;;;;;;15.55;3.90;;;;;;;;;;5078279;28;20149;-72
2022/07/09 02:07:26;;;;;;;13.82;4.40;;;;;;;;;;5079732;28;20475;-72
2022/07/09 02:09:51;;;;;;;12.85;4.07;;;;;;;;;;5077996;28;20078;-72
2022/07/09 02:12:17;;;;;;;11.35;4.20;;;;;;;;;;5083279;28;20021;-71
2022/07/09 02:14:42;;;;;;;14.00;4.30;;;;;;;;;;5084179;28;20033;-71
2022/07/09 02:17:08;;;;;;;11.32;4.57;;;;;;;;;;5080551;28;20082;-71
2022/07/09 02:19:33;;;;;;;12.60;3.90;;;;;;;;;;5081778;28;20474;-71
2022/07/09 02:21:58;;;;;;;12.15;4.97;;;;;;;;;;5076092;28;20064;-71
2022/07/09 02:24:23;;;;;;;14.73;4.70;;;;;;;;;;5083260;28;20020;-71
2022/07/09 02:26:49;;;;;;;13.95;4.60;;;;;;;;;;5077433;28;20020;-72
2022/07/09 02:29:14;;;;;;;10.27;3.63;;;;;;;;;;5094300;28;20528;-71
2022/07/09 02:31:39;;;;;;;10.98;4.07;;;;;;;;;;5075661;28;20028;-71
2022/07/09 02:34:05;;;;;;;12.57;4.32;;;;;;;;;;5094518;28;20036;-71
2022/07/09 02:36:30;;;;;;;10.18;3.97;;;;;;;;;;5078277;28;20029;-71
2022/07/09 02:38:55;;;;;;;10.23;3.88;;;;;;;;;;5089180;28;20040;-72
2022/07/09 02:41:20;;;;;;;8.90;3.60;;;;;;;;;;5079753;28;20029;-72
2022/07/09 02:43:46;;;;;;;11.00;3.90;;;;;;;;;;5088700;28;20035;-71
2022/07/09 02:46:11;;;;;;;14.35;4.00;;;;;;;;;;5079852;28;20029;-71
2022/07/09 02:48:36;;;;;;;16.98;4.43;;;;;;;;;;5082606;28;20456;-72
2022/07/09 02:51:03;;;;;;;9.32;4.30;;;;;;;;;;5087876;28;20044;-72
2022/07/09 02:53:28;;;;;;;12.80;4.72;;;;;;;;;;5088567;28;20051;-71
2022/07/09 02:55:53;;;;;;;10.07;4.30;;;;;;;;;;5077167;28;20059;-72
2022/07/09 02:58:18;;;;;;;13.50;4.63;;;;;;;;;;5083673;28;20036;-71
2022/07/09 03:00:44;;;;;;;12.30;4.47;;;;;;;;;;5080848;28;20091;-72
2022/07/09 03:03:09;;;;;;;9.68;4.05;;;;;;;;;;5080514;28;20009;-71
2022/07/09 03:05:35;;;;;;;13.07;4.30;;;;;;;;;;5075892;28;20036;-71
2022/07/09 03:08:00;;;;;;;14.15;4.50;;;;;;;;;;5077808;28;20028;-72
2022/07/09 03:10:25;;;;;;;12.20;4.25;;;;;;;;;;5078608;28;20028;-72
2022/07/09 03:12:51;;;;;;;16.50;4.25;;;;;;;;;;5080456;28;20043;-72
2022/07/09 03:15:19;;;;;;;14.27;4.35;;;;;;;;;;5079517;28;20376;-72
2022/07/09 03:17:45;;;;;;;15.10;4.18;;;;;;;;;;5074762;28;20029;-71
2022/07/09 03:20:10;;;;;;;14.35;3.90;;;;;;;;;;5087255;28;20028;-71
2022/07/09 03:22:36;;;;;;;13.63;4.32;;;;;;;;;;5083937;28;20031;-71
2022/07/09 03:25:01;;;;;;;11.90;3.95;;;;;;;;;;5090044;28;20020;-71
2022/07/09 03:27:26;;;;;;;12.50;4.07;;;;;;;;;;5075825;28;20033;-71
2022/07/09 03:29:52;;;;;;;12.30;4.38;;;;;;;;;;5082620;28;20027;-72
2022/07/09 03:32:17;;;;;;;12.05;4.25;;;;;;;;;;5078886;28;20385;-71
2022/07/09 03:34:42;;;;;;;13.77;4.25;;;;;;;;;;5080045;28;20044;-71
2022/07/09 03:37:08;;;;;;;11.55;4.00;;;;;;;;;;5074877;28;20052;-71
2022/07/09 03:39:34;;;;;;;10.50;4.20;;;;;;;;;;5079751;28;20041;-72
2022/07/09 03:41:59;;;;;;;16.25;4.07;;;;;;;;;;5074676;28;20430;-72
2022/07/09 03:44:24;;;;;;;12.43;4.32;;;;;;;;;;5078836;28;20020;-72
2022/07/09 03:46:49;;;;;;;14.10;4.43;;;;;;;;;;5074414;28;20593;-72
2022/07/09 03:49:15;;;;;;;12.93;4.13;;;;;;;;;;5078119;28;20035;-72
2022/07/09 03:51:40;;;;;;;13.27;3.97;;;;;;;;;;5074695;28;20099;-71
2022/07/09 03:54:05;;;;;;;12.85;5.05;;;;;;;;;;5080678;28;20040;-71
2022/07/09 03:56:31;;;;;;;10.23;4.05;;;;;;;;;;5074737;28;20071;-70
2022/07/09 03:58:56;;;;;;;15.57;4.10;;;;;;;;;;5092830;28;20096;-72
2022/07/09 04:01:21;;;;;;;8.55;3.55;;;;;;;;;;5077537;28;20013;-72
2022/07/09 04:03:46;;;;;;;11.10;3.97;;;;;;;;;;5091968;28;20490;-71
2022/07/09 04:06:12;;;;;;;11.98;4.10;;;;;;;;;;5080997;28;20052;-72
2022/07/09 04:08:37;;;;;;;11.05;4.10;;;;;;;;;;5071302;28;20020;-71
2022/07/09 04:11:02;;;;;;;13.60;4.43;;;;;;;;;;5074278;28;20095;-71
2022/07/09 04:13:28;;;;;;;16.95;3.88;;;;;;;;;;5082532;28;20024;-72
2022/07/09 04:15:53;;;;;;;14.63;4.70;;;;;;;;;;5080132;28;20096;-71
2022/07/09 04:18:18;;;;;;;13.10;3.88;;;;;;;;;;5080153;28;20032;-72
2022/07/09 04:20:44;;;;;;;12.32;3.90;;;;;;;;;;5086434;28;20058;-71
2022/07/09 04:23:09;;;;;;;10.40;4.10;;;;;;;;;;5093279;28;20016;-71
2022/07/09 04:25:34;;;;;;;11.90;4.32;;;;;;;;;;5080765;28;20032;-71
2022/07/09 04:28:00;;;;;;;8.60;3.55;;;;;;;;;;5092712;28;20035;-71
2022/07/09 04:30:28;;;;;;;10.95;3.97;;;;;;;;;;5080476;28;20031;-71
2022/07/09 04:32:53;;;;;;;12.20;3.78;;;;;;;;;;5082904;28;20111;-71
2022/07/09 04:35:19;;;;;;;12.25;4.35;;;;;;;;;;5083746;28;20170;-71
2022/07/09 04:37:44;;;;;;;12.93;4.57;;;;;;;;;;5073942;28;20031;-71
2022/07/09 04:40:09;;;;;;;10.18;3.90;;;;;;;;;;5082585;28;20057;-71
2022/07/09 04:42:35;;;;;;;11.20;3.80;;;;;;;;;;5073495;28;20380;-71
2022/07/09 04:45:00;;;;;;;9.50;4.03;;;;;;;;;;5078471;28;20020;-71
2022/07/09 04:47:25;;;;;;;11.52;4.00;;;;;;;;;;5072983;28;20033;-70
2022/07/09 04:49:51;;;;;;;13.20;3.83;;;;;;;;;;5076192;28;20016;-71
2022/07/09 04:52:19;;;;;;;12.80;3.63;;;;;;;;;;5075771;28;20070;-71
2022/07/09 04:54:44;;;;;;;11.35;3.60;;;;;;;;;;5078803;28;20036;-71
2022/07/09 04:57:10;;;;;;;9.63;3.53;;;;;;;;;;5076573;28;20365;-70
2022/07/09 04:59:35;;;;;;;9.70;3.88;;;;;;;;;;5076030;28;20372;-72
2022/07/09 05:02:00;;;;;;;11.95;4.55;;;;;;;;;;5073151;28;20098;-71
2022/07/09 05:04:25;;;;;;;9.82;3.72;;;;;;;;;;5087814;28;20046;-71
2022/07/09 05:06:51;;;;;;;14.60;3.33;;;;;;;;;;5090180;28;20023;-71
2022/07/09 05:09:16;;;;;;;5.60;2.72;;;;;;;;;;5075505;28;20056;-71
2022/07/09 05:11:41;;;;;;;5.63;2.35;;;;;;;;;;5076523;28;20017;-71
2022/07/09 05:14:06;;;;;;;76.03;4.80;;;;;;;;;;5075669;28;20028;-71
2022/07/09 05:16:32;;;;;;;183.88;8.85;;;;;;;;;;5072618;28;20361;-72
2022/07/09 05:18:57;;;;;;;133.48;7.40;;;;;;;;;;5079433;28;20031;-71
2022/07/09 05:21:22;;;;;;;121.20;6.78;;;;;;;;;;5081107;28;20103;-72
2022/07/09 05:23:47;;;;;;;5.70;2.00;;;;;;;;;;5091793;28;20028;-72
2022/07/09 05:26:13;;;;;;;2.95;1.65;;;;;;;;;;5080575;28;20020;-72
2022/07/09 05:28:38;;;;;;;4.90;1.80;;;;;;;;;;5079327;28;20019;-71
2022/07/09 05:31:04;;;;;;;3.05;1.70;;;;;;;;;;5074750;28;20052;-72
2022/07/09 05:33:29;;;;;;;2.80;1.40;;;;;;;;;;5089319;28;20024;-72
2022/07/09 05:35:54;;;;;;;2.92;1.70;;;;;;;;;;5082361;28;20453;-73
2022/07/09 05:38:20;;;;;;;3.55;1.42;;;;;;;;;;5061990;28;20125;-72
2022/07/09 05:40:46;;;;;;;6.57;1.50;;;;;;;;;;5073551;28;20346;-73
2022/07/09 05:43:11;;;;;;;2.22;1.35;;;;;;;;;;5086090;28;20075;-72
2022/07/09 05:45:36;;;;;;;3.03;1.75;;;;;;;;;;5072771;28;20031;-73
2022/07/09 05:48:02;;;;;;;3.95;1.33;;;;;;;;;;5072662;28;20468;-73
2022/07/09 05:50:27;;;;;;;2.50;1.40;;;;;;;;;;5073875;28;20028;-73
2022/07/09 05:52:52;;;;;;;2.30;1.30;;;;;;;;;;5080054;28;20039;-72
2022/07/09 05:55:18;;;;;;;3.15;1.40;;;;;;;;;;5076264;28;20031;-72
2022/07/09 05:57:43;;;;;;;3.05;1.40;;;;;;;;;;5073918;28;20020;-73
2022/07/09 06:00:08;;;;;;;4.95;1.45;;;;;;;;;;5073507;28;20090;-72
2022/07/09 06:02:34;;;;;;;4.28;1.20;;;;;;;;;;5081712;28;20032;-72
2022/07/09 06:04:59;;;;;;;2.95;1.27;;;;;;;;;;5082118;28;20456;-72
2022/07/09 06:07:25;;;;;;;2.10;1.35;;;;;;;;;;5082204;28;20060;-73
2022/07/09 06:09:50;;;;;;;1.90;1.20;;;;;;;;;;5079990;28;20024;-72
2022/07/09 06:12:15;;;;;;;4.18;1.38;;;;;;;;;;5073246;28;20099;-73
2022/07/09 06:14:41;;;;;;;2.38;1.20;;;;;;;;;;5075861;28;20491;-73
2022/07/09 06:17:06;;;;;;;4.25;1.40;;;;;;;;;;5077653;28;20021;-72
2022/07/09 06:19:35;;;;;;;2.25;1.38;;;;;;;;;;5075905;28;20093;-73
2022/07/09 06:22:00;;;;;;;3.55;1.23;;;;;;;;;;5075067;28;20035;-72
2022/07/09 06:24:26;;;;;;;3.17;1.30;;;;;;;;;;5082377;28;20103;-73
2022/07/09 06:26:51;;;;;;;2.38;1.30;;;;;;;;;;5084086;28;20413;-73
2022/07/09 06:29:16;;;;;;;2.15;1.20;;;;;;;;;;5076718;28;20035;-72
2022/07/09 06:31:41;;;;;;;2.60;1.20;;;;;;;;;;5073268;28;20463;-73
2022/07/09 06:34:07;;;;;;;2.20;1.30;;;;;;;;;;5088224;28;20036;-73
2022/07/09 06:36:32;;;;;;;2.33;1.20;;;;;;;;;;5080309;28;20025;-72
2022/07/09 06:41:41;;;;;;;4.53;2.20;;;;;;;;;;5075874;28;20062;-73
2022/07/09 06:44:06;;;;;;;1.98;1.33;;;;;;;;;;5083128;28;20048;-72
2022/07/09 06:46:31;;;;;;;4.70;1.42;;;;;;;;;;5078448;28;20070;-71
2022/07/09 06:48:57;;;;;;;2.63;1.30;;;;;;;;;;5083940;28;20020;-72
2022/07/09 06:51:22;;;;;;;2.75;1.20;;;;;;;;;;5081964;28;20032;-73
2022/07/09 06:53:47;;;;;;;3.08;1.30;;;;;;;;;;5093499;28;20107;-73
2022/07/09 06:56:12;;;;;;;2.60;1.20;;;;;;;;;;5084536;28;20021;-72
2022/07/09 06:58:37;;;;;;;4.50;1.20;;;;;;;;;;5075420;28;20273;-72
2022/07/09 07:01:03;;;;;;;1.80;1.00;;;;;;;;;;5079109;28;20249;-72
2022/07/09 07:03:28;;;;;;;3.67;1.30;;;;;;;;;;5075714;28;20260;-71
2022/07/09 07:05:53;;;;;;;3.80;1.60;;;;;;;;;;5082496;28;20071;-71
2022/07/09 07:08:19;;;;;;;3.58;1.20;;;;;;;;;;5086567;28;20017;-71
2022/07/09 07:10:44;;;;;;;3.08;1.50;;;;;;;;;;5076108;28;20407;-71
2022/07/09 07:13:10;;;;;;;2.72;1.30;;;;;;;;;;5077484;28;20032;-72
2022/07/09 07:15:35;;;;;;;2.83;1.48;;;;;;;;;;5082183;28;20052;-73
2022/07/09 07:18:01;;;;;;;2.22;1.40;;;;;;;;;;5077466;28;20464;-73
2022/07/09 07:20:26;;;;;;;3.67;1.40;;;;;;;;;;5079440;28;20029;-73
2022/07/09 07:22:51;;;;;;;2.60;1.23;;;;;;;;;;5081557;28;20259;-73
2022/07/09 07:25:17;;;;;;;2.83;1.30;;;;;;;;;;5078685;28;20024;-73
2022/07/09 07:27:42;;;;;;;3.83;1.60;;;;;;;;;;5080277;28;20036;-74
2022/07/09 07:30:07;;;;;;;2.28;1.20;;;;;;;;;;5077082;28;20029;-73
2022/07/09 07:32:33;;;;;;;3.97;1.10;;;;;;;;;;5085792;28;20035;-73
2022/07/09 07:34:58;;;;;;;3.20;1.30;;;;;;;;;;5081749;28;20039;-72
2022/07/09 07:37:23;;;;;;;4.85;1.30;;;;;;;;;;5078576;28;20031;-74
2022/07/09 07:39:48;;;;;;;1.95;1.20;;;;;;;;;;5078212;28;20055;-73
2022/07/09 07:42:15;;;;;;;2.63;1.30;;;;;;;;;;5081264;28;20479;-72
2022/07/09 07:44:40;;;;;;;3.47;1.10;;;;;;;;;;5081145;28;20263;-73
2022/07/09 07:47:05;;;;;;;2.50;1.30;;;;;;;;;;5076135;28;20103;-74
2022/07/09 07:49:31;;;;;;;1.88;1.00;;;;;;;;;;5082088;28;20031;-73
2022/07/09 07:51:56;;;;;;;3.83;1.30;;;;;;;;;;5088097;28;20025;-73
2022/07/09 07:54:21;;;;;;;4.33;1.13;;;;;;;;;;5085209;28;20036;-73
2022/07/09 07:56:46;;;;;;;2.28;1.20;;;;;;;;;;5075981;28;20269;-73
2022/07/09 07:59:12;;;;;;;2.57;1.30;;;;;;;;;;5080269;28;20075;-73
2022/07/09 08:01:37;;;;;;;3.63;1.25;;;;;;;;;;5073196;28;20254;-73
2022/07/09 08:04:03;;;;;;;1.77;1.20;;;;;;;;;;5085025;28;20032;-73
2022/07/09 08:06:28;;;;;;;1.77;0.90;;;;;;;;;;5077060;28;20100;-74
2022/07/09 08:08:53;;;;;;;1.42;0.90;;;;;;;;;;5079397;28;20016;-73
2022/07/09 08:11:18;;;;;;;1.13;0.77;;;;;;;;;;5080469;28;20107;-73
2022/07/09 08:13:44;;;;;;;5.23;1.13;;;;;;;;;;5077572;28;20391;-73
2022/07/09 08:16:09;;;;;;;3.97;1.15;;;;;;;;;;5074791;28;20354;-74
2022/07/09 08:18:35;;;;;;;2.00;1.10;;;;;;;;;;5083501;28;20028;-73
2022/07/09 08:21:00;;;;;;;3.53;1.17;;;;;;;;;;5078086;28;20013;-72
2022/07/09 08:23:25;;;;;;;2.45;0.88;;;;;;;;;;5085056;28;20028;-73
2022/07/09 08:25:50;;;;;;;3.45;1.00;;;;;;;;;;5078149;28;20043;-73
2022/07/09 08:28:16;;;;;;;1.80;0.90;;;;;;;;;;5086482;28;20102;-72
2022/07/09 08:30:41;;;;;;;2.55;1.10;;;;;;;;;;5079489;28;20553;-72
2022/07/09 08:33:06;;;;;;;2.35;1.10;;;;;;;;;;5073617;28;20041;-72
2022/07/09 08:35:32;;;;;;;2.20;0.90;;;;;;;;;;5082554;28;20020;-72
2022/07/09 08:37:57;;;;;;;2.25;1.20;;;;;;;;;;5073516;28;20016;-72
2022/07/09 08:40:24;;;;;;;2.20;1.00;;;;;;;;;;5075401;28;20514;-73
2022/07/09 08:42:49;;;;;;;2.20;1.00;;;;;;;;;;5074779;28;20028;-74
2022/07/09 08:45:16;;;;;;;2.60;0.95;;;;;;;;;;5082512;28;20104;-73
2022/07/09 08:47:41;;;;;;;5.18;0.90;;;;;;;;;;5065299;28;20032;-73
2022/07/09 08:50:07;;;;;;;3.03;1.10;;;;;;;;;;5089047;28;20016;-72
2022/07/09 08:52:33;;;;;;;2.85;1.38;;;;;;;;;;5084105;28;20028;-72
2022/07/09 08:54:59;;;;;;;2.05;0.90;;;;;;;;;;5087857;28;20081;-72
2022/07/09 08:57:24;;;;;;;1.80;1.00;;;;;;;;;;5082638;28;20024;-72
2022/07/09 08:59:49;;;;;;;2.28;1.30;;;;;;;;;;5078504;28;20022;-74
2022/07/09 09:02:15;;;;;;;2.65;1.10;;;;;;;;;;5089816;28;20043;-73
2022/07/09 09:04:40;;;;;;;2.70;1.10;;;;;;;;;;5089008;28;20087;-74
2022/07/09 09:07:15;;;;;;;4.15;1.10;;;;;;;;;;5082548;28;20043;-74
2022/07/09 09:09:41;;;;;;;2.13;1.20;;;;;;;;;;5078325;28;20056;-75
2022/07/09 09:12:07;;;;;;;1.60;0.90;;;;;;;;;;5074840;28;20061;-75
2022/07/09 09:14:32;;;;;;;2.38;1.02;;;;;;;;;;5079946;28;20036;-74
2022/07/09 09:17:09;;;;;;;1.52;0.80;;;;;;;;;;5070749;28;20028;-74
2022/07/09 09:19:35;;;;;;;3.72;1.00;;;;;;;;;;5071252;28;20016;-73
2022/07/09 09:22:00;;;;;;;3.10;1.10;;;;;;;;;;5086730;28;20417;-73
2022/07/09 09:24:25;;;;;;;2.15;1.02;;;;;;;;;;5092472;28;20070;-73
2022/07/09 09:26:51;;;;;;;3.05;1.00;;;;;;;;;;5079632;28;20479;-73
2022/07/09 09:29:16;;;;;;;2.55;1.20;;;;;;;;;;5092276;28;20035;-72
2022/07/09 09:31:44;;;;;;;2.45;1.20;;;;;;;;;;5079892;28;20028;-73
2022/07/09 09:34:15;;;;;;;2.03;1.17;;;;;;;;;;5085747;28;20114;-74
2022/07/09 09:36:40;;;;;;;5.38;1.33;;;;;;;;;;5087956;28;20031;-74
2022/07/09 09:39:14;;;;;;;2.97;1.40;;;;;;;;;;5082665;28;20032;-74
2022/07/09 09:41:41;;;;;;;3.38;1.33;;;;;;;;;;5075377;28;20254;-74
2022/07/09 09:44:09;;;;;;;3.22;1.45;;;;;;;;;;5082209;28;20024;-74
2022/07/09 09:46:35;;;;;;;4.38;1.25;;;;;;;;;;5085098;28;20016;-75
2022/07/09 09:49:05;;;;;;;2.38;1.25;;;;;;;;;;5082579;28;20060;-74
2022/07/09 09:51:31;;;;;;;4.05;1.33;;;;;;;;;;5074036;28;20060;-74
2022/07/09 09:53:56;;;;;;;3.65;1.30;;;;;;;;;;5081786;28;20106;-74
2022/07/09 09:56:23;;;;;;;4.18;1.10;;;;;;;;;;5082638;28;20134;-74
2022/07/09 09:58:48;;;;;;;2.80;1.10;;;;;;;;;;5076774;28;20406;-74
2022/07/09 10:01:14;;;;;;;3.53;1.00;;;;;;;;;;5076686;28;20043;-73
2022/07/09 10:03:39;;;;;;;3.03;1.02;;;;;;;;;;5077096;28;20265;-74
2022/07/09 10:06:05;;;;;;;2.38;1.20;;;;;;;;;;5080578;28;20066;-73
2022/07/09 10:08:30;;;;;;;2.78;1.10;;;;;;;;;;5081276;28;20447;-74
2022/07/09 10:10:55;;;;;;;3.33;1.30;;;;;;;;;;5073353;28;20029;-73
2022/07/09 10:13:21;;;;;;;1.75;1.17;;;;;;;;;;5079084;28;20108;-74
2022/07/09 10:15:50;;;;;;;4.07;1.17;;;;;;;;;;5079297;28;20013;-75
2022/07/09 10:18:18;;;;;;;4.03;1.25;;;;;;;;;;5084853;28;20039;-74
2022/07/09 10:20:44;;;;;;;2.17;1.23;;;;;;;;;;5077443;28;20040;-75
2022/07/09 10:23:20;;;;;;;3.10;1.20;;;;;;;;;;5087137;28;20020;-74
2022/07/09 10:25:50;;;;;;;2.75;1.20;;;;;;;;;;5075781;28;20369;-74
2022/07/09 10:28:19;;;;;;;2.28;1.23;;;;;;;;;;5071076;28;20033;-73
2022/07/09 10:30:45;;;;;;;2.85;1.17;;;;;;;;;;5077335;28;20028;-74
2022/07/09 10:33:11;;;;;;;2.00;1.05;;;;;;;;;;5074770;28;20043;-74
2022/07/09 10:35:40;;;;;;;2.67;1.00;;;;;;;;;;5076269;28;20028;-74
2022/07/09 10:38:06;;;;;;;6.55;1.10;;;;;;;;;;5075327;28;20383;-74
2022/07/09 10:40:37;;;;;;;1.40;0.93;;;;;;;;;;5074495;28;20051;-73
2022/07/09 10:43:03;;;;;;;2.20;1.07;;;;;;;;;;5077266;28;20036;-74
2022/07/09 10:45:32;;;;;;;4.45;1.10;;;;;;;;;;5088981;28;20032;-73
2022/07/09 10:47:59;;;;;;;1.80;1.00;;;;;;;;;;5074596;28;20012;-73
2022/07/09 10:50:25;;;;;;;2.08;1.00;;;;;;;;;;5079141;28;20051;-74
2022/07/09 10:52:51;;;;;;;3.55;1.20;;;;;;;;;;5084237;28;20371;-74
2022/07/09 10:55:17;;;;;;;1.98;0.95;;;;;;;;;;5089001;28;20119;-72
2022/07/09 10:57:42;;;;;;;1.60;0.90;;;;;;;;;;5087848;28;20104;-74
2022/07/09 11:00:10;;;;;;;2.50;1.02;;;;;;;;;;5088521;28;20111;-72
2022/07/09 11:02:35;;;;;;;3.75;1.30;;;;;;;;;;5081257;28;20016;-72
2022/07/09 11:05:00;;;;;;;4.32;1.10;;;;;;;;;;5081619;28;20038;-72
2022/07/09 11:07:25;;;;;;;2.00;1.05;;;;;;;;;;5084159;28;20052;-72
2022/07/09 11:09:52;;;;;;;2.08;1.05;;;;;;;;;;5084547;28;20034;-73
2022/07/09 11:12:21;;;;;;;1.63;0.80;;;;;;;;;;5090263;28;20102;-73
2022/07/09 11:14:47;;;;;;;1.38;0.80;;;;;;;;;;5079106;28;20127;-73
2022/07/09 11:17:16;;;;;;;1.52;0.90;;;;;;;;;;5074268;28;20384;-73
2022/07/09 11:19:42;;;;;;;1.50;0.80;;;;;;;;;;5078723;28;20083;-72
2022/07/09 11:22:07;;;;;;;2.35;0.90;;;;;;;;;;5077036;28;20472;-72
2022/07/09 11:24:32;;;;;;;3.30;1.00;;;;;;;;;;5084554;28;20074;-73
2022/07/09 11:27:02;;;;;;;2.00;1.00;;;;;;;;;;5077108;28;20383;-73
2022/07/09 11:29:27;;;;;;;1.77;0.93;;;;;;;;;;5084881;28;20024;-73
2022/07/09 11:31:52;;;;;;;2.50;1.08;;;;;;;;;;5080820;28;20367;-73
2022/07/09 11:34:18;;;;;;;5.00;1.00;;;;;;;;;;5085693;28;20036;-73
2022/07/09 11:36:50;;;;;;;2.42;0.88;;;;;;;;;;5077699;28;20050;-73
2022/07/09 11:39:42;;;;;;;2.50;1.10;;;;;;;;;;5079599;28;20119;-73
2022/07/09 11:42:16;;;;;;;2.33;0.80;;;;;;;;;;5074318;28;20056;-73
2022/07/09 11:44:41;;;;;;;2.45;1.00;;;;;;;;;;5085691;28;20024;-72
2022/07/09 11:47:07;;;;;;;1.58;0.90;;;;;;;;;;5083856;28;20444;-71
2022/07/09 11:49:43;;;;;;;2.90;0.98;;;;;;;;;;5091396;28;20015;-72
2022/07/09 11:52:21;;;;;;;2.17;1.00;;;;;;;;;;5076845;28;20074;-72
2022/07/09 11:54:55;;;;;;;2.05;0.90;;;;;;;;;;5078669;28;20043;-72
2022/07/09 11:57:24;;;;;;;2.20;0.90;;;;;;;;;;5087900;28;20028;-72
2022/07/09 11:59:49;;;;;;;1.70;0.80;;;;;;;;;;5076737;28;20388;-72
2022/07/09 12:02:31;;;;;;;1.73;0.80;;;;;;;;;;5076336;28;20035;-71
2022/07/09 12:04:57;;;;;;;1.85;0.90;;;;;;;;;;5065573;28;20035;-71
2022/07/09 12:07:22;;;;;;;1.48;0.88;;;;;;;;;;5080081;28;20382;-72
2022/07/09 12:09:57;;;;;;;2.05;0.90;;;;;;;;;;5090601;28;20423;-72
2022/07/09 12:12:22;;;;;;;2.78;0.90;;;;;;;;;;5080297;28;20035;-71
2022/07/09 12:14:47;;;;;;;2.05;0.80;;;;;;;;;;5073516;28;20042;-71
2022/07/09 12:17:39;;;;;;;1.58;0.90;;;;;;;;;;5076151;28;20099;-71
2022/07/09 12:20:07;;;;;;;1.77;0.90;;;;;;;;;;5073951;28;20131;-72
2022/07/09 12:22:32;;;;;;;1.95;0.80;;;;;;;;;;5076071;28;20068;-72
2022/07/09 12:24:57;;;;;;;2.60;1.05;;;;;;;;;;5075732;28;20054;-72
2022/07/09 12:27:22;;;;;;;2.13;0.85;;;;;;;;;;5076029;28;20025;-72
2022/07/09 12:29:48;;;;;;;2.53;1.00;;;;;;;;;;5074431;28;20056;-73
2022/07/09 12:32:13;;;;;;;1.05;0.68;;;;;;;;;;5075674;28;20032;-73
2022/07/09 12:34:38;;;;;;;2.10;1.00;;;;;;;;;;5081942;28;20032;-71
2022/07/09 12:37:04;;;;;;;1.88;0.88;;;;;;;;;;5085001;28;20028;-71
2022/07/09 12:39:29;;;;;;;1.45;0.73;;;;;;;;;;5084521;28;20411;-72
2022/07/09 12:41:55;;;;;;;1.65;0.80;;;;;;;;;;5088949;28;20024;-71
2022/07/09 12:44:20;;;;;;;1.20;0.70;;;;;;;;;;5068776;28;20036;-71
2022/07/09 12:46:45;;;;;;;1.80;0.80;;;;;;;;;;5088874;28;20023;-71
2022/07/09 12:49:10;;;;;;;2.95;0.90;;;;;;;;;;5082357;28;20380;-71
2022/07/09 12:51:36;;;;;;;1.77;0.90;;;;;;;;;;5077565;28;20044;-71
2022/07/09 12:54:01;;;;;;;1.33;0.77;;;;;;;;;;5081247;28;20111;-71
2022/07/09 12:56:26;;;;;;;1.92;0.90;;;;;;;;;;5074878;28;20020;-71
2022/07/09 12:58:52;;;;;;;2.67;0.80;;;;;;;;;;5083351;28;20036;-72
2022/07/09 13:01:17;;;;;;;1.33;0.73;;;;;;;;;;5075858;28;20380;-72
2022/07/09 13:03:42;;;;;;;1.02;0.70;;;;;;;;;;5081236;28;20032;-71
2022/07/09 13:06:30;;;;;;;2.13;0.70;;;;;;;;;;5073262;28;20043;-72
2022/07/09 13:08:53;;;;;;;2.72;0.70;;;;;;;;;;5082139;28;20028;-72
2022/07/09 13:11:19;;;;;;;1.08;0.70;;;;;;;;;;5077182;28;20126;-72
2022/07/09 13:13:44;;;;;;;2.10;0.80;;;;;;;;;;5089255;28;20107;-71
2022/07/09 13:16:09;;;;;;;3.55;0.82;;;;;;;;;;5085247;28;20383;-72
2022/07/09 13:18:34;;;;;;;1.30;0.77;;;;;;;;;;5074469;28;20111;-72
2022/07/09 13:21:00;;;;;;;1.30;0.70;;;;;;;;;;5088100;28;20015;-72
2022/07/09 13:23:25;;;;;;;1.52;0.80;;;;;;;;;;5085616;28;20024;-72
2022/07/09 13:25:50;;;;;;;6.22;0.90;;;;;;;;;;5080373;28;20496;-72
2022/07/09 13:28:15;;;;;;;5.93;0.73;;;;;;;;;;5082931;28;20024;-72
2022/07/09 13:30:41;;;;;;;1.30;0.70;;;;;;;;;;5073596;28;20027;-71
2022/07/09 13:33:06;;;;;;;1.20;0.70;;;;;;;;;;5076622;28;20368;-71
2022/07/09 13:35:31;;;;;;;1.10;0.65;;;;;;;;;;5082209;28;20521;-71
2022/07/09 13:37:56;;;;;;;0.70;0.70;;;;;;;;;;5073252;28;20103;-72
2022/07/09 13:40:22;;;;;;;5.32;0.70;;;;;;;;;;5074169;28;20084;-71
2022/07/09 13:42:47;;;;;;;1.70;0.80;;;;;;;;;;5081648;28;20039;-72
2022/07/09 13:45:12;;;;;;;2.15;0.68;;;;;;;;;;5075776;28;20052;-72
2022/07/09 13:47:38;;;;;;;1.42;0.70;;;;;;;;;;5076783;28;20063;-71
2022/07/09 13:50:03;;;;;;;0.90;0.60;;;;;;;;;;5074681;28;20021;-72
2022/07/09 13:52:28;;;;;;;1.25;0.70;;;;;;;;;;5088922;28;20020;-72
2022/07/09 13:54:54;;;;;;;1.80;0.50;;;;;;;;;;5089853;28;20523;-71
2022/07/09 13:57:19;;;;;;;0.98;0.60;;;;;;;;;;5086677;28;20020;-71
2022/07/09 13:59:44;;;;;;;0.88;0.50;;;;;;;;;;5082445;28;20061;-71
2022/07/09 14:02:09;;;;;;;1.38;0.77;;;;;;;;;;5079804;28;20040;-71
2022/07/09 14:04:35;;;;;;;0.88;0.60;;;;;;;;;;5065529;28;20020;-72
2022/07/09 14:07:00;;;;;;;1.73;0.80;;;;;;;;;;5072821;28;20021;-71
2022/07/09 14:09:25;;;;;;;0.93;0.63;;;;;;;;;;5074268;28;20471;-72
2022/07/09 14:11:50;;;;;;;0.98;0.60;;;;;;;;;;5075108;28;20372;-72
2022/07/09 14:14:16;;;;;;;0.98;0.65;;;;;;;;;;5084723;28;20197;-72
2022/07/09 14:16:41;;;;;;;1.23;0.80;;;;;;;;;;5074750;28;20036;-72
2022/07/09 14:19:06;;;;;;;1.48;0.80;;;;;;;;;;5084582;28;20025;-72
2022/07/09 14:21:31;;;;;;;0.93;0.60;;;;;;;;;;5078226;28;20032;-72
2022/07/09 14:23:57;;;;;;;1.20;0.68;;;;;;;;;;5082828;28;20028;-72
2022/07/09 14:26:23;;;;;;;2.35;0.65;;;;;;;;;;5082435;28;20025;-73
2022/07/09 14:28:48;;;;;;;1.55;0.70;;;;;;;;;;5082235;28;20028;-73
2022/07/09 14:31:14;;;;;;;3.25;0.80;;;;;;;;;;5082356;28;20357;-73
2022/07/09 14:33:39;;;;;;;6.80;0.70;;;;;;;;;;5082735;28;20107;-73